| time (UTC) | temp C | wind direction | speed KPH | gust KPH | rain 1hr cm | rain 24hr cm | rain mn cm | humidity % | barometer mb |
| 20260505170514 | 16 | 211 | 12.9 | 38.6 | 0.00 | 0.00 | 0.00 | 36 | 1013.5 |
| 20260505165727 | 17 | 190 | 19.3 | 29.0 | 0.00 | 0.00 | 0.00 | 37 | 1013.4 |
| 20260505165514 | 17 | 190 | 19.3 | 29.0 | 0.00 | 0.00 | 0.00 | 37 | 1013.4 |
| 20260505164955 | 16 | 195 | 8.0 | 32.2 | 0.00 | 0.00 | 0.00 | 37 | 1013.4 |
| 20260505164705 | 16 | 203 | 8.0 | 32.2 | 0.00 | 0.00 | 0.00 | 38 | 1013.3 |
| 20260505164502 | 16 | 203 | 8.0 | 32.2 | 0.00 | 0.00 | 0.00 | 38 | 1013.3 |
| 20260505163505 | 16 | 196 | 17.7 | 30.6 | 0.00 | 0.00 | 0.00 | 38 | 1013.2 |
| 20260505161830 | 15 | 230 | 14.5 | 24.1 | 0.00 | 0.00 | 0.00 | 42 | 1013.5 |
| 20260505161500 | 15 | 230 | 14.5 | 24.1 | 0.00 | 0.00 | 0.00 | 42 | 1013.5 |
| 20260505160732 | 15 | 236 | 17.7 | 30.6 | 0.00 | 0.00 | 0.00 | 41 | 1013.4 |
| 20260505160500 | 15 | 236 | 17.7 | 30.6 | 0.00 | 0.00 | 0.00 | 41 | 1013.4 |
| 20260505153120 | 14 | 238 | 12.9 | 25.7 | 0.00 | 0.00 | 0.00 | 42 | 1013.3 |
| 20260505151116 | 13 | 228 | 16.1 | 33.8 | 0.00 | 0.00 | 0.00 | 43 | 1013.6 |
| 20260505140409 | 11 | 258 | 11.3 | 20.9 | 0.00 | 0.00 | 0.00 | 46 | 1013.6 |
| 20260505140113 | 11 | 258 | 11.3 | 20.9 | 0.00 | 0.00 | 0.00 | 46 | 1013.6 |
| 20260505124959 | 7 | 266 | 1.6 | 9.7 | 0.00 | 0.00 | 0.00 | 53 | 1013.2 |
| 20260505124635 | 7 | 266 | 1.6 | 9.7 | 0.00 | 0.00 | 0.00 | 53 | 1013.2 |
| 20260505122908 | 7 | 244 | 1.6 | 11.3 | 0.00 | 0.00 | 0.00 | 53 | 1013.4 |
| 20260505122628 | 7 | 244 | 1.6 | 11.3 | 0.00 | 0.00 | 0.00 | 53 | 1013.4 |
| 20260505122145 | 7 | 246 | 4.8 | 14.5 | 0.00 | 0.00 | 0.00 | 54 | 1013.4 |
| 20260505121950 | 7 | 256 | 8.0 | 14.5 | 0.00 | 0.00 | 0.00 | 54 | 1013.4 |
| 20260505121700 | 7 | 256 | 8.0 | 14.5 | 0.00 | 0.00 | 0.00 | 54 | 1013.4 |
| 20260505121628 | 7 | 256 | 8.0 | 14.5 | 0.00 | 0.00 | 0.00 | 54 | 1013.4 |
| 20260505120756 | 7 | 302 | 3.2 | 8.0 | 0.00 | 0.00 | 0.00 | 52 | 1013.7 |
| 20260505120621 | 7 | 302 | 3.2 | 8.0 | 0.00 | 0.00 | 0.00 | 52 | 1013.7 |
| 20260505120433 | 7 | 302 | 3.2 | 8.0 | 0.00 | 0.00 | 0.00 | 52 | 1013.7 |
| 20260505120256 | 8 | 0 | 0.0 | 1.6 | 0.00 | 0.00 | 0.00 | 49 | 1013.8 |
| 20260505115910 | 8 | 0 | 0.0 | 1.6 | 0.00 | 0.00 | 0.00 | 49 | 1013.8 |
| 20260505115720 | 8 | 0 | 0.0 | 3.2 | 0.00 | 0.00 | 0.00 | 49 | 1013.9 |
| 20260505115424 | 8 | 0 | 0.0 | 3.2 | 0.00 | 0.00 | 0.00 | 49 | 1013.9 |
| 20260505115011 | 8 | 0 | 0.0 | 11.3 | 0.00 | 0.00 | 0.00 | 49 | 1013.9 |
| 20260505114910 | 8 | 0 | 0.0 | 11.3 | 0.00 | 0.00 | 0.00 | 49 | 1013.9 |
| 20260505114311 | 8 | 303 | 4.8 | 17.7 | 0.00 | 0.00 | 0.00 | 49 | 1013.8 |
| 20260505113912 | 8 | 303 | 4.8 | 17.7 | 0.00 | 0.00 | 0.00 | 49 | 1013.8 |
| 20260505113655 | 8 | 256 | 9.7 | 20.9 | 0.00 | 0.00 | 0.00 | 50 | 1013.7 |
| 20260505113410 | 8 | 256 | 9.7 | 20.9 | 0.00 | 0.00 | 0.00 | 50 | 1013.7 |
| 20260505113241 | 9 | 267 | 11.3 | 22.5 | 0.00 | 0.00 | 0.00 | 49 | 1013.5 |
| 20260505112910 | 9 | 267 | 11.3 | 22.5 | 0.00 | 0.00 | 0.00 | 49 | 1013.5 |
| 20260505112746 | 8 | 266 | 14.5 | 33.8 | 0.00 | 0.00 | 0.00 | 49 | 1013.4 |
| 20260505112410 | 8 | 266 | 14.5 | 33.8 | 0.00 | 0.00 | 0.00 | 49 | 1013.4 |
| 20260505111756 | 8 | 260 | 17.7 | 30.6 | 0.00 | 0.00 | 0.00 | 49 | 1013.5 |
| 20260505111505 | 8 | 260 | 17.7 | 30.6 | 0.00 | 0.00 | 0.00 | 49 | 1013.5 |
| 20260505111410 | 8 | 260 | 17.7 | 30.6 | 0.00 | 0.00 | 0.00 | 49 | 1013.5 |
| 20260505111328 | 9 | 249 | 19.3 | 30.6 | 0.00 | 0.00 | 0.00 | 49 | 1013.5 |
| 20260505110920 | 9 | 249 | 19.3 | 30.6 | 0.00 | 0.00 | 0.00 | 49 | 1013.5 |
| 20260505110719 | 9 | 247 | 16.1 | 27.4 | 0.00 | 0.00 | 0.00 | 48 | 1013.7 |
| 20260505110410 | 9 | 247 | 16.1 | 27.4 | 0.00 | 0.00 | 0.00 | 48 | 1013.7 |
| 20260505101906 | 8 | 228 | 4.8 | 9.7 | 0.00 | 0.00 | 0.00 | 45 | 1014.2 |
| 20260505101416 | 8 | 214 | 1.6 | 4.8 | 0.00 | 0.00 | 0.00 | 43 | 1014.2 |
| 20260505100905 | 8 | 214 | 1.6 | 9.7 | 0.00 | 0.00 | 0.00 | 42 | 1014.1 |
| 20260505100420 | 8 | 209 | 3.2 | 11.3 | 0.00 | 0.00 | 0.00 | 42 | 1014.1 |
| 20260505100238 | 9 | 236 | 4.8 | 14.5 | 0.00 | 0.00 | 0.00 | 42 | 1014.1 |
| 20260505095912 | 9 | 236 | 4.8 | 14.5 | 0.00 | 0.00 | 0.00 | 42 | 1014.1 |
| 20260505095419 | 9 | 230 | 8.0 | 17.7 | 0.00 | 0.00 | 0.00 | 41 | 1014.2 |
| 20260505095002 | 9 | 230 | 8.0 | 17.7 | 0.00 | 0.00 | 0.00 | 41 | 1014.2 |
| 20260505094904 | 9 | 230 | 8.0 | 17.7 | 0.00 | 0.00 | 0.00 | 41 | 1014.2 |
| 20260505093652 | 10 | 233 | 4.8 | 14.5 | 0.00 | 0.00 | 0.00 | 40 | 1014.2 |
| 20260505093419 | 10 | 233 | 4.8 | 14.5 | 0.00 | 0.00 | 0.00 | 40 | 1014.2 |
| 20260505092914 | 10 | 241 | 8.0 | 17.7 | 0.00 | 0.00 | 0.00 | 40 | 1014.0 |
| 20260505092417 | 10 | 228 | 8.0 | 19.3 | 0.00 | 0.00 | 0.00 | 40 | 1013.8 |
| 20260505092257 | 10 | 234 | 9.7 | 19.3 | 0.00 | 0.00 | 0.00 | 40 | 1013.7 |
| 20260505091943 | 10 | 234 | 9.7 | 19.3 | 0.00 | 0.00 | 0.00 | 40 | 1013.7 |
| 20260505091909 | 10 | 234 | 9.7 | 19.3 | 0.00 | 0.00 | 0.00 | 40 | 1013.7 |
| 20260505091404 | 10 | 234 | 9.7 | 19.3 | 0.00 | 0.00 | 0.00 | 40 | 1013.8 |
| 20260505091148 | 10 | 246 | 11.3 | 24.1 | 0.00 | 0.00 | 0.00 | 40 | 1013.8 |
| 20260505090922 | 10 | 246 | 11.3 | 24.1 | 0.00 | 0.00 | 0.00 | 40 | 1013.8 |
| 20260505090615 | 10 | 253 | 16.1 | 27.4 | 0.00 | 0.00 | 0.00 | 40 | 1013.9 |
| 20260505090413 | 10 | 253 | 16.1 | 27.4 | 0.00 | 0.00 | 0.00 | 40 | 1013.9 |
| 20260505085257 | 10 | 254 | 16.1 | 25.7 | 0.00 | 0.00 | 0.00 | 40 | 1013.8 |
| 20260505084904 | 10 | 254 | 16.1 | 25.7 | 0.00 | 0.00 | 0.00 | 40 | 1013.8 |
| 20260505083904 | 10 | 248 | 14.5 | 24.1 | 0.00 | 0.00 | 0.00 | 40 | 1013.8 |
| 20260505083238 | 11 | 237 | 11.3 | 24.1 | 0.00 | 0.00 | 0.00 | 40 | 1014.1 |
| 20260505083039 | 11 | 237 | 11.3 | 24.1 | 0.00 | 0.00 | 0.00 | 40 | 1014.1 |
| 20260505082904 | 11 | 237 | 11.3 | 24.1 | 0.00 | 0.00 | 0.00 | 40 | 1014.1 |
| 20260505081904 | 11 | 239 | 12.9 | 24.1 | 0.00 | 0.00 | 0.00 | 40 | 1014.2 |
| 20260505081409 | 11 | 245 | 14.5 | 24.1 | 0.00 | 0.00 | 0.00 | 40 | 1013.9 |
| 20260505081237 | 11 | 244 | 14.5 | 24.1 | 0.00 | 0.00 | 0.00 | 40 | 1013.9 |
| 20260505080905 | 11 | 244 | 14.5 | 24.1 | 0.00 | 0.00 | 0.00 | 40 | 1013.9 |
| 20260505080412 | 11 | 240 | 11.3 | 17.7 | 0.00 | 0.00 | 0.00 | 40 | 1014.0 |
| 20260505075909 | 11 | 241 | 8.0 | 20.9 | 0.00 | 0.00 | 0.00 | 40 | 1014.1 |
| 20260505075720 | 11 | 239 | 9.7 | 20.9 | 0.00 | 0.00 | 0.00 | 39 | 1014.0 |
| 20260505075404 | 11 | 239 | 9.7 | 20.9 | 0.00 | 0.00 | 0.00 | 39 | 1014.0 |
| 20260505074316 | 11 | 245 | 16.1 | 22.5 | 0.00 | 0.00 | 0.00 | 39 | 1014.1 |
| 20260505073912 | 11 | 245 | 16.1 | 22.5 | 0.00 | 0.00 | 0.00 | 39 | 1014.1 |
| 20260505073404 | 11 | 258 | 11.3 | 20.9 | 0.00 | 0.00 | 0.00 | 39 | 1014.0 |
| 20260505073238 | 11 | 257 | 9.7 | 20.9 | 0.00 | 0.00 | 0.00 | 38 | 1014.2 |
| 20260505072904 | 11 | 257 | 9.7 | 20.9 | 0.00 | 0.00 | 0.00 | 38 | 1014.2 |
| 20260505072653 | 11 | 264 | 8.0 | 17.7 | 0.00 | 0.00 | 0.00 | 37 | 1014.3 |
| 20260505072404 | 11 | 264 | 8.0 | 17.7 | 0.00 | 0.00 | 0.00 | 37 | 1014.3 |
| 20260505072221 | 11 | 256 | 8.0 | 14.5 | 0.00 | 0.00 | 0.00 | 37 | 1014.3 |
| 20260505071904 | 11 | 256 | 8.0 | 14.5 | 0.00 | 0.00 | 0.00 | 37 | 1014.3 |
| 20260505071406 | 11 | 262 | 8.0 | 14.5 | 0.00 | 0.00 | 0.00 | 36 | 1014.3 |
| 20260505070615 | 12 | 264 | 4.8 | 16.1 | 0.00 | 0.00 | 0.00 | 35 | 1014.0 |
| 20260505070404 | 12 | 264 | 4.8 | 16.1 | 0.00 | 0.00 | 0.00 | 35 | 1014.0 |
| 20260505065409 | 12 | 267 | 3.2 | 17.7 | 0.00 | 0.00 | 0.00 | 35 | 1013.9 |
| 20260505064907 | 12 | 260 | 8.0 | 20.9 | 0.00 | 0.00 | 0.00 | 35 | 1014.0 |
| 20260505064241 | 12 | 260 | 11.3 | 27.4 | 0.00 | 0.00 | 0.00 | 34 | 1013.9 |
| 20260505063930 | 12 | 260 | 11.3 | 27.4 | 0.00 | 0.00 | 0.00 | 34 | 1013.9 |
| 20260505063646 | 12 | 261 | 12.9 | 27.4 | 0.00 | 0.00 | 0.00 | 34 | 1013.8 |
| 20260505063404 | 12 | 261 | 12.9 | 27.4 | 0.00 | 0.00 | 0.00 | 34 | 1013.8 |
| 20260505062407 | 12 | 252 | 16.1 | 24.1 | 0.00 | 0.00 | 0.00 | 34 | 1013.6 |
| 20260505061907 | 12 | 244 | 14.5 | 25.7 | 0.00 | 0.00 | 0.00 | 33 | 1013.7 |
| 20260505060437 | 13 | 251 | 14.5 | 27.4 | 0.00 | 0.00 | 0.00 | 33 | 1013.6 |
| 20260505060406 | 13 | 251 | 14.5 | 27.4 | 0.00 | 0.00 | 0.00 | 33 | 1013.6 |
| 20260505055405 | 13 | 247 | 14.5 | 24.1 | 0.00 | 0.00 | 0.00 | 31 | 1013.6 |
| 20260505055220 | 13 | 242 | 16.1 | 25.7 | 0.00 | 0.00 | 0.00 | 31 | 1013.6 |
| 20260505054904 | 13 | 242 | 16.1 | 25.7 | 0.00 | 0.00 | 0.00 | 31 | 1013.6 |
| 20260505041407 | 15 | 262 | 16.1 | 29.0 | 0.00 | 0.00 | 0.00 | 25 | 1013.4 |
| 20260505041249 | 15 | 260 | 16.1 | 32.2 | 0.00 | 0.00 | 0.00 | 25 | 1013.6 |
| 20260505040905 | 15 | 260 | 16.1 | 32.2 | 0.00 | 0.00 | 0.00 | 25 | 1013.6 |
| 20260505040220 | 15 | 254 | 19.3 | 33.8 | 0.00 | 0.00 | 0.00 | 25 | 1013.1 |
| 20260505035918 | 15 | 254 | 19.3 | 33.8 | 0.00 | 0.00 | 0.00 | 25 | 1013.1 |
| 20260505035827 | 17 | 250 | 20.9 | 43.5 | 0.00 | 0.00 | 0.00 | 23 | 1011.5 |
| 20260505035820 | 17 | 253 | 20.9 | 43.5 | 0.00 | 0.00 | 0.00 | 23 | 1011.5 |
| 20260505035317 | 15 | 248 | 16.1 | 29.0 | 0.00 | 0.00 | 0.00 | 25 | 1013.0 |
| 20260505034904 | 15 | 248 | 16.1 | 29.0 | 0.00 | 0.00 | 0.00 | 25 | 1013.0 |
| 20260505031818 | 16 | 247 | 19.3 | 27.4 | 0.00 | 0.00 | 0.00 | 24 | 1012.6 |
| 20260505031452 | 16 | 247 | 19.3 | 27.4 | 0.00 | 0.00 | 0.00 | 24 | 1012.6 |
| 20260505030920 | 16 | 256 | 16.1 | 25.7 | 0.00 | 0.00 | 0.00 | 24 | 1012.4 |
| 20260505030523 | 16 | 256 | 16.1 | 25.7 | 0.00 | 0.00 | 0.00 | 24 | 1012.4 |
| 20260505025956 | 16 | 257 | 14.5 | 25.7 | 0.00 | 0.00 | 0.00 | 24 | 1012.4 |
| 20260505025306 | 16 | 258 | 14.5 | 24.1 | 0.00 | 0.00 | 0.00 | 24 | 1012.5 |
| 20260505024802 | 16 | 254 | 12.9 | 30.6 | 0.00 | 0.00 | 0.00 | 24 | 1012.5 |
| 20260505024309 | 16 | 251 | 16.1 | 30.6 | 0.00 | 0.00 | 0.00 | 23 | 1012.4 |
| 20260505022917 | 16 | 258 | 22.5 | 38.6 | 0.00 | 0.00 | 0.00 | 23 | 1011.9 |
| 20260505021913 | 17 | 250 | 20.9 | 43.5 | 0.00 | 0.00 | 0.00 | 23 | 1011.5 |
| 20260505021421 | 17 | 253 | 20.9 | 43.5 | 0.00 | 0.00 | 0.00 | 23 | 1011.5 |
| 20260505020609 | 17 | 248 | 22.5 | 41.8 | 0.00 | 0.00 | 0.00 | 23 | 1011.0 |
| 20260505020413 | 17 | 245 | 25.7 | 49.9 | 0.00 | 0.00 | 0.00 | 23 | 1011.4 |
| 20260505015918 | 17 | 254 | 20.9 | 38.6 | 0.00 | 0.00 | 0.00 | 24 | 1011.1 |
| 20260505014930 | 17 | 248 | 22.5 | 41.8 | 0.00 | 0.00 | 0.00 | 23 | 1011.0 |
| 20260505013431 | 18 | 249 | 22.5 | 43.5 | 0.00 | 0.00 | 0.00 | 24 | 1011.8 |
| 20260505012919 | 18 | 249 | 27.4 | 48.3 | 0.00 | 0.00 | 0.00 | 24 | 1011.7 |
| 20260505012415 | 18 | 246 | 24.1 | 48.3 | 0.00 | 0.00 | 0.00 | 25 | 1011.7 |
| 20260505011415 | 18 | 246 | 25.7 | 48.3 | 0.00 | 0.00 | 0.00 | 26 | 1011.6 |
| 20260505010915 | 18 | 253 | 25.7 | 41.8 | 0.00 | 0.00 | 0.00 | 26 | 1011.6 |
| 20260505010413 | 19 | 253 | 27.4 | 41.8 | 0.00 | 0.00 | 0.00 | 25 | 1011.6 |
| 20260505005916 | 19 | 234 | 14.5 | 38.6 | 0.00 | 0.00 | 0.00 | 26 | 1011.7 |
| 20260505005416 | 20 | 242 | 24.1 | 38.6 | 0.00 | 0.00 | 0.00 | 27 | 1011.6 |
| 20260505004922 | 20 | 236 | 19.3 | 41.8 | 0.00 | 0.00 | 0.00 | 27 | 1011.5 |
| 20260505004414 | 20 | 239 | 24.1 | 41.8 | 0.00 | 0.00 | 0.00 | 28 | 1011.5 |
| 20260505003939 | 20 | 246 | 25.7 | 40.2 | 0.00 | 0.00 | 0.00 | 28 | 1011.8 |
| 20260505003413 | 20 | 243 | 22.5 | 41.8 | 0.00 | 0.00 | 0.00 | 28 | 1011.8 |
| 20260505002913 | 20 | 231 | 24.1 | 41.8 | 0.00 | 0.00 | 0.00 | 26 | 1011.5 |
| 20260505002428 | 20 | 244 | 29.0 | 41.8 | 0.00 | 0.00 | 0.00 | 26 | 1011.4 |
| 20260505000929 | 21 | 231 | 24.1 | 40.2 | 0.00 | 0.00 | 0.00 | 25 | 1011.6 |
| 20260505000430 | 21 | 237 | 22.5 | 43.5 | 0.00 | 0.00 | 0.00 | 24 | 1011.5 |
| 20260504235921 | 21 | 248 | 20.9 | 43.5 | 0.00 | 0.00 | 0.00 | 24 | 1011.7 |
| 20260504235417 | 21 | 245 | 22.5 | 35.4 | 0.00 | 0.00 | 0.00 | 24 | 1011.7 |
| 20260504234914 | 22 | 233 | 19.3 | 33.8 | 0.00 | 0.00 | 0.00 | 23 | 1011.6 |
| 20260504234413 | 22 | 211 | 14.5 | 33.8 | 0.00 | 0.00 | 0.00 | 22 | 1011.7 |
| 20260504233914 | 22 | 236 | 17.7 | 37.0 | 0.00 | 0.00 | 0.00 | 22 | 1011.7 |
| 20260504232913 | 22 | 227 | 11.3 | 35.4 | 0.00 | 0.00 | 0.00 | 23 | 1011.7 |
| 20260504232422 | 22 | 215 | 16.1 | 30.6 | 0.00 | 0.00 | 0.00 | 22 | 1011.7 |
| 20260504231921 | 22 | 212 | 12.9 | 30.6 | 0.00 | 0.00 | 0.00 | 23 | 1011.6 |
| 20260504231422 | 22 | 218 | 17.7 | 30.6 | 0.00 | 0.00 | 0.00 | 22 | 1011.5 |
| 20260504230428 | 23 | 213 | 14.5 | 40.2 | 0.00 | 0.00 | 0.00 | 22 | 1011.6 |
| 20260504225921 | 23 | 182 | 20.9 | 37.0 | 0.00 | 0.00 | 0.00 | 20 | 1011.6 |
| 20260504225413 | 24 | 196 | 16.1 | 33.8 | 0.00 | 0.00 | 0.00 | 21 | 1011.7 |
| 20260504224913 | 24 | 200 | 16.1 | 27.4 | 0.00 | 0.00 | 0.00 | 20 | 1011.7 |
| 20260504223851 | 23 | 214 | 16.1 | 30.6 | 0.00 | 0.00 | 0.00 | 21 | 1011.8 |
| 20260504223418 | 23 | 214 | 16.1 | 30.6 | 0.00 | 0.00 | 0.00 | 21 | 1011.8 |
| 20260504221949 | 23 | 227 | 17.7 | 27.4 | 0.00 | 0.03 | 0.00 | 21 | 1012.1 |
| 20260504221418 | 23 | 227 | 17.7 | 27.4 | 0.00 | 0.03 | 0.00 | 21 | 1012.1 |
| 20260504220947 | 12 | 154 | 8.0 | 14.5 | 0.00 | 0.05 | 0.00 | 48 | 1015.0 |
| 20260504220935 | 11 | 188 | 6.4 | 9.7 | 0.00 | 0.05 | 0.00 | 52 | 1015.1 |
| 20260504220931 | 23 | 203 | 9.7 | 22.5 | 0.00 | 0.05 | 0.00 | 21 | 1012.1 |
| 20260504220927 | 11 | 244 | 3.2 | 6.4 | 0.00 | 0.05 | 0.00 | 57 | 1015.0 |
| 20260504220913 | 23 | 216 | 11.3 | 27.4 | 0.00 | 0.05 | 0.00 | 21 | 1012.2 |
| 20260504220413 | 23 | 203 | 9.7 | 22.5 | 0.00 | 0.05 | 0.00 | 21 | 1012.1 |
| 20260504220402 | 23 | 210 | 12.9 | 33.8 | 0.00 | 0.05 | 0.00 | 20 | 1012.3 |
| 20260504220126 | 23 | 244 | 19.3 | 46.7 | 0.00 | 0.05 | 0.00 | 21 | 1012.5 |
| 20260504215915 | 23 | 210 | 12.9 | 33.8 | 0.00 | 0.05 | 0.00 | 20 | 1012.3 |
| 20260504215423 | 23 | 244 | 19.3 | 46.7 | 0.00 | 0.05 | 0.00 | 21 | 1012.5 |
| 20260504214417 | 23 | 235 | 14.5 | 22.5 | 0.00 | 0.05 | 0.00 | 20 | 1012.7 |
| 20260504213438 | 23 | 228 | 16.1 | 33.8 | 0.00 | 0.05 | 0.00 | 20 | 1012.9 |
| 20260504213426 | 23 | 255 | 16.1 | 33.8 | 0.00 | 0.05 | 0.00 | 20 | 1012.9 |
| 20260504212925 | 23 | 228 | 16.1 | 33.8 | 0.00 | 0.05 | 0.00 | 20 | 1012.9 |
| 20260504212423 | 23 | 182 | 14.5 | 32.2 | 0.00 | 0.05 | 0.00 | 18 | 1012.9 |
| 20260504212313 | 23 | 187 | 16.1 | 30.6 | 0.00 | 0.05 | 0.00 | 20 | 1013.0 |
| 20260504211922 | 23 | 187 | 16.1 | 30.6 | 0.00 | 0.05 | 0.00 | 20 | 1013.0 |
| 20260504210925 | 22 | 222 | 6.4 | 32.2 | 0.00 | 0.05 | 0.00 | 22 | 1013.1 |
| 20260504205425 | 22 | 222 | 9.7 | 29.0 | 0.00 | 0.05 | 0.00 | 23 | 1013.4 |
| 20260504204425 | 21 | 218 | 9.7 | 27.4 | 0.00 | 0.05 | 0.00 | 25 | 1013.4 |
| 20260504203955 | 21 | 176 | 16.1 | 27.4 | 0.00 | 0.05 | 0.00 | 24 | 1013.3 |
| 20260504203922 | 21 | 176 | 16.1 | 27.4 | 0.00 | 0.05 | 0.00 | 24 | 1013.3 |
| 20260504203425 | 21 | 179 | 12.9 | 24.1 | 0.00 | 0.05 | 0.00 | 24 | 1013.4 |
| 20260504202422 | 21 | 160 | 17.7 | 33.8 | 0.00 | 0.05 | 0.00 | 27 | 1013.6 |
| 20260504200929 | 21 | 197 | 14.5 | 29.0 | 0.00 | 0.05 | 0.00 | 28 | 1013.8 |
| 20260504195433 | 21 | 181 | 11.3 | 30.6 | 0.00 | 0.05 | 0.00 | 27 | 1013.9 |
| 20260504192500 | 20 | 197 | 14.5 | 25.7 | 0.00 | 0.05 | 0.00 | 28 | 1014.1 |
| 20260504192422 | 20 | 197 | 14.5 | 25.7 | 0.00 | 0.05 | 0.00 | 28 | 1014.1 |
| 20260504191102 | 21 | 175 | 11.3 | 25.7 | 0.00 | 0.05 | 0.00 | 32 | 1014.4 |
| 20260504191059 | 21 | 166 | 12.9 | 25.7 | 0.00 | 0.05 | 0.00 | 30 | 1014.2 |
| 20260504190929 | 21 | 175 | 11.3 | 25.7 | 0.00 | 0.05 | 0.00 | 32 | 1014.4 |
| 20260504190425 | 21 | 166 | 12.9 | 25.7 | 0.00 | 0.05 | 0.00 | 30 | 1014.2 |
| 20260504184422 | 19 | 151 | 6.4 | 24.1 | 0.00 | 0.05 | 0.00 | 31 | 1014.7 |
| 20260504183922 | 20 | 172 | 12.9 | 24.1 | 0.00 | 0.05 | 0.00 | 31 | 1014.7 |
| 20260504182427 | 18 | 183 | 9.7 | 17.7 | 0.00 | 0.05 | 0.00 | 35 | 1014.8 |
| 20260504181925 | 18 | 154 | 11.3 | 17.7 | 0.00 | 0.05 | 0.00 | 32 | 1015.1 |
| 20260504181054 | 18 | 156 | 9.7 | 20.9 | 0.00 | 0.05 | 0.00 | 34 | 1015.2 |
| 20260504180052 | 17 | 174 | 16.1 | 24.1 | 0.00 | 0.05 | 0.00 | 35 | 1015.0 |
| 20260504175101 | 17 | 160 | 14.5 | 22.5 | 0.00 | 0.05 | 0.00 | 35 | 1015.1 |
| 20260504174553 | 17 | 174 | 12.9 | 22.5 | 0.00 | 0.05 | 0.00 | 35 | 1015.2 |
| 20260504174100 | 17 | 171 | 12.9 | 22.5 | 0.00 | 0.05 | 0.00 | 36 | 1015.0 |
| 20260504173552 | 17 | 196 | 11.3 | 19.3 | 0.00 | 0.05 | 0.00 | 37 | 1015.1 |
| 20260504172052 | 17 | 153 | 4.8 | 14.5 | 0.00 | 0.05 | 0.00 | 37 | 1015.3 |